createdAt,value
2022-11-24T00:00:34.480Z,40.47
2022-11-24T00:03:37.371Z,31.98
2022-11-24T00:06:39.952Z,38.35
2022-11-24T00:09:42.758Z,25.50
2022-11-24T00:12:45.260Z,38.67
2022-11-24T00:15:48.018Z,28.62
2022-11-24T00:18:52.542Z,25.73
2022-11-24T00:21:55.428Z,37.00
2022-11-24T00:24:57.901Z,49.73
2022-11-24T00:28:00.752Z,25.17
2022-11-24T00:31:04.261Z,55.85
2022-11-24T00:34:10.580Z,41.00
2022-11-24T00:37:13.155Z,32.38
2022-11-24T00:40:16.097Z,35.97
2022-11-24T00:43:18.983Z,36.20
2022-11-24T00:46:22.544Z,35.30
2022-11-24T00:49:25.123Z,34.15
2022-11-24T00:52:27.885Z,18.40
2022-11-24T00:55:30.429Z,36.37
2022-11-24T00:58:33.587Z,38.67
2022-11-24T01:01:36.398Z,35.83
2022-11-24T01:04:39.335Z,59.47
2022-11-24T01:07:41.985Z,26.10
2022-11-24T01:10:45.210Z,47.17
2022-11-24T01:13:51.365Z,51.87
2022-11-24T01:16:54.889Z,30.88
2022-11-24T01:19:57.459Z,35.30
2022-11-24T01:23:00.258Z,31.85
2022-11-24T01:26:07.569Z,44.47
2022-11-24T01:29:11.080Z,36.23
2022-11-24T01:32:13.914Z,34.75
2022-11-24T01:35:16.762Z,27.77
2022-11-24T01:38:19.323Z,38.28
2022-11-24T01:41:24.648Z,39.77
2022-11-24T01:44:29.406Z,50.57
2022-11-24T01:47:35.616Z,33.22
2022-11-24T01:50:38.319Z,41.85
2022-11-24T01:53:44.576Z,44.85
2022-11-24T01:56:52.937Z,32.70
2022-11-24T01:59:59.550Z,37.33
2022-11-24T02:03:02.525Z,53.83
2022-11-24T02:06:12.039Z,40.17
2022-11-24T02:09:31.492Z,37.38
2022-11-24T02:12:34.310Z,29.90
2022-11-24T02:15:36.858Z,64.50
2022-11-24T02:18:40.258Z,31.67
2022-11-24T02:21:42.969Z,28.73
2022-11-24T02:25:02.861Z,26.08
2022-11-24T02:28:12.481Z,22.63
2022-11-24T02:31:15.309Z,41.33
2022-11-24T02:34:17.870Z,56.80
2022-11-24T02:37:20.712Z,36.08
2022-11-24T02:40:25.794Z,51.53
2022-11-24T02:43:31.016Z,30.03
2022-11-24T02:46:33.532Z,56.50
2022-11-24T02:49:37.065Z,36.38
2022-11-24T02:52:39.559Z,37.78
2022-11-24T02:55:42.461Z,49.22
2022-11-24T02:58:44.982Z,55.57
2022-11-24T03:01:47.916Z,30.33
2022-11-24T03:04:50.659Z,34.95
2022-11-24T03:07:53.490Z,38.00
2022-11-24T03:10:56.081Z,22.90
2022-11-24T03:13:59.044Z,38.93
2022-11-24T03:17:01.938Z,28.63
2022-11-24T03:20:05.489Z,54.47
2022-11-24T03:23:08.076Z,47.62
2022-11-24T03:26:13.223Z,32.63
2022-11-24T03:29:15.822Z,50.33
2022-11-24T03:32:19.024Z,53.87
2022-11-24T03:35:22.176Z,45.15
2022-11-24T03:38:25.310Z,36.25
2022-11-24T03:41:27.947Z,38.60
2022-11-24T03:44:31.056Z,36.90
2022-11-24T03:47:33.750Z,45.83
2022-11-24T03:50:36.552Z,47.78
2022-11-24T03:53:39.437Z,38.10
2022-11-24T03:56:42.858Z,32.70
2022-11-24T03:59:45.336Z,16.43
2022-11-24T04:02:48.604Z,27.83
2022-11-24T04:05:51.706Z,27.55
2022-11-24T04:08:54.664Z,14.32
2022-11-24T04:12:15.924Z,19.42
2022-11-24T04:15:19.315Z,12.07
2022-11-24T04:18:22.464Z,17.07
2022-11-24T04:21:24.980Z,26.80
2022-11-24T04:24:27.755Z,33.50
2022-11-24T04:27:30.281Z,13.77
2022-11-24T04:30:33.080Z,22.43
2022-11-24T04:33:35.769Z,15.43
2022-11-24T04:36:41.059Z,22.67
2022-11-24T04:39:44.138Z,19.25
2022-11-24T04:42:58.074Z,16.75
2022-11-24T04:46:01.726Z,33.53
2022-11-24T04:49:04.492Z,25.47
2022-11-24T04:52:07.076Z,15.93
2022-11-24T04:55:10.026Z,26.27
2022-11-24T04:58:13.193Z,21.85
2022-11-24T05:01:16.164Z,16.63
2022-11-24T05:04:20.473Z,27.40
2022-11-24T05:07:23.296Z,10.63
2022-11-24T05:10:35.164Z,23.40
2022-11-24T05:13:37.932Z,16.27
2022-11-24T05:16:40.871Z,16.87
2022-11-24T05:19:43.655Z,19.83
2022-11-24T05:22:46.241Z,14.25
2022-11-24T05:25:49.009Z,13.10
2022-11-24T05:28:51.514Z,14.85
2022-11-24T05:31:54.291Z,17.10
2022-11-24T05:34:56.857Z,6.47
2022-11-24T05:37:59.670Z,16.12
2022-11-24T05:41:05.712Z,17.20
2022-11-24T05:44:08.505Z,21.00
2022-11-24T05:47:10.971Z,12.70
2022-11-24T05:50:15.416Z,13.73
2022-11-24T05:53:17.887Z,17.60
2022-11-24T05:56:20.588Z,16.40
2022-11-24T05:59:23.078Z,10.55
2022-11-24T06:02:26.207Z,16.17
2022-11-24T06:05:29.602Z,16.87
2022-11-24T06:08:32.674Z,13.00
2022-11-24T06:11:35.572Z,20.27
2022-11-24T06:14:38.341Z,13.90
2022-11-24T06:17:41.315Z,20.73
2022-11-24T06:20:53.145Z,16.13
2022-11-24T06:24:06.221Z,19.75
2022-11-24T06:27:08.748Z,17.75
2022-11-24T06:30:13.006Z,15.43
2022-11-24T06:33:15.543Z,8.40
2022-11-24T06:36:18.346Z,17.50
2022-11-24T06:39:20.848Z,16.90
2022-11-24T06:42:23.785Z,12.05
2022-11-24T06:45:26.491Z,7.97
2022-11-24T06:48:30.055Z,18.80
2022-11-24T06:51:32.752Z,19.17
2022-11-24T06:54:35.965Z,18.40
2022-11-24T06:57:38.795Z,18.50
2022-11-24T07:00:41.689Z,17.10
2022-11-24T07:03:45.017Z,25.57
2022-11-24T07:06:47.802Z,24.87
2022-11-24T07:09:50.410Z,20.25
2022-11-24T07:12:53.263Z,18.92
2022-11-24T07:15:56.066Z,17.02
2022-11-24T07:18:59.519Z,11.03
2022-11-24T07:22:02.278Z,6.63
2022-11-24T07:25:07.589Z,13.30
2022-11-24T07:28:10.423Z,12.60
2022-11-24T07:31:15.867Z,7.68
2022-11-24T07:34:18.565Z,7.47
2022-11-24T07:37:24.511Z,5.50
2022-11-24T07:40:30.752Z,12.48
2022-11-24T07:43:34.719Z,10.23
2022-11-24T07:46:39.679Z,13.98
2022-11-24T07:49:44.701Z,9.40
2022-11-24T07:52:47.331Z,12.70
2022-11-24T07:56:00.203Z,9.60
2022-11-24T07:59:03.342Z,11.95
2022-11-24T08:02:06.694Z,13.13
2022-11-24T08:05:09.781Z,11.40
2022-11-24T08:08:12.486Z,13.50
2022-11-24T08:11:17.188Z,8.30
2022-11-24T08:14:19.812Z,14.43
2022-11-24T08:17:23.153Z,16.25
2022-11-24T08:20:26.771Z,11.77
2022-11-24T08:23:30.644Z,12.67
2022-11-24T08:26:34.677Z,14.05
2022-11-24T08:29:38.108Z,12.88
2022-11-24T08:32:40.677Z,15.18
2022-11-24T08:35:43.541Z,10.07
2022-11-24T08:38:46.950Z,17.03
2022-11-24T08:41:49.751Z,10.77
2022-11-24T08:44:58.916Z,8.10
2022-11-24T08:48:02.240Z,12.90
2022-11-24T08:51:15.856Z,13.47
2022-11-24T08:54:18.940Z,10.47
2022-11-24T08:57:23.802Z,9.98
2022-11-24T09:00:28.806Z,8.00
2022-11-24T09:03:31.851Z,11.52
2022-11-24T09:06:34.878Z,9.97
2022-11-24T09:09:37.574Z,12.03
2022-11-24T09:12:40.608Z,8.13
2022-11-24T09:15:43.207Z,10.27
2022-11-24T09:18:47.091Z,8.50
2022-11-24T09:21:50.149Z,8.60
2022-11-24T09:24:53.037Z,8.67
2022-11-24T09:27:56.635Z,8.82
2022-11-24T09:31:06.127Z,15.35
2022-11-24T09:34:13.079Z,8.00
2022-11-24T09:37:15.817Z,10.97
2022-11-24T09:40:18.411Z,10.07
2022-11-24T09:43:37.701Z,5.32
2022-11-24T09:46:57.200Z,11.02
2022-11-24T09:50:06.609Z,6.43
2022-11-24T09:53:12.640Z,10.60
2022-11-24T09:56:15.393Z,7.60
2022-11-24T09:59:24.824Z,7.25
2022-11-24T10:02:27.907Z,8.57
2022-11-24T10:05:34.765Z,8.05
2022-11-24T10:09:15.384Z,12.17
2022-11-24T10:12:35.711Z,10.93
2022-11-24T10:15:45.331Z,12.20
2022-11-24T10:18:59.258Z,9.43
2022-11-24T10:22:14.209Z,7.32
2022-11-24T10:25:26.329Z,10.40
2022-11-24T10:28:55.720Z,12.07
2022-11-24T10:31:58.589Z,7.30
2022-11-24T10:35:17.443Z,9.32
2022-11-24T10:38:20.281Z,10.90
2022-11-24T10:41:32.203Z,10.33
2022-11-24T10:44:35.203Z,12.07
2022-11-24T10:47:38.432Z,13.30
2022-11-24T10:50:41.679Z,21.92
2022-11-24T10:53:46.197Z,11.65
2022-11-24T10:56:52.022Z,12.37
2022-11-24T10:59:55.671Z,9.80
2022-11-24T11:03:33.932Z,8.73
2022-11-24T11:06:38.162Z,11.80
2022-11-24T11:09:41.123Z,10.50
2022-11-24T11:12:45.003Z,11.13
2022-11-24T11:15:48.278Z,6.90
2022-11-24T11:18:51.042Z,7.35
2022-11-24T11:22:02.610Z,7.05
2022-11-24T11:25:08.075Z,6.37
2022-11-24T11:28:29.882Z,5.03
2022-11-24T11:31:33.209Z,8.63
2022-11-24T11:34:37.002Z,7.18
2022-11-24T11:37:40.074Z,5.87
2022-11-24T11:40:44.022Z,7.78
2022-11-24T11:43:50.443Z,3.80
2022-11-24T11:46:54.609Z,4.37
2022-11-24T11:49:57.881Z,5.90
2022-11-24T11:53:07.539Z,3.53
2022-11-24T11:56:10.152Z,5.12
2022-11-24T11:59:13.076Z,4.30
2022-11-24T12:02:51.572Z,3.80
2022-11-24T12:05:59.619Z,5.87
2022-11-24T12:09:20.727Z,6.43
2022-11-24T12:13:01.898Z,5.22
2022-11-24T12:16:15.277Z,4.27
2022-11-24T12:19:27.468Z,5.63
2022-11-24T12:22:59.616Z,3.00
2022-11-24T12:26:05.474Z,5.53
2022-11-24T12:29:26.293Z,2.90
2022-11-24T12:32:47.528Z,3.43
2022-11-24T12:35:54.524Z,3.53
2022-11-24T12:39:18.666Z,4.10
2022-11-24T12:42:42.959Z,3.72
2022-11-24T12:46:18.611Z,2.25
2022-11-24T12:49:33.458Z,3.17
2022-11-24T12:53:04.306Z,3.80
2022-11-24T12:56:10.908Z,3.78
2022-11-24T12:59:39.410Z,4.35
2022-11-24T13:03:00.914Z,3.78
2022-11-24T13:06:09.820Z,4.03
2022-11-24T13:09:13.829Z,4.53
2022-11-24T13:12:16.792Z,3.30
2022-11-24T13:18:59.343Z,5.12
2022-11-24T13:22:16.763Z,4.40
2022-11-24T13:25:26.124Z,3.70
2022-11-24T13:29:09.325Z,4.15
2022-11-24T13:32:25.066Z,4.18
2022-11-24T13:35:28.065Z,5.22
2022-11-24T13:38:46.122Z,4.40
2022-11-24T13:41:48.570Z,4.43
2022-11-24T13:44:53.295Z,4.22
2022-11-24T13:47:55.790Z,3.92
2022-11-24T13:50:58.705Z,6.43
2022-11-24T13:54:01.806Z,5.73
2022-11-24T13:57:47.197Z,9.70
2022-11-24T14:00:58.359Z,4.57
2022-11-24T14:04:29.867Z,6.18
2022-11-24T14:07:33.585Z,13.27
2022-11-24T14:10:41.070Z,10.80
2022-11-24T14:13:43.735Z,11.33
2022-11-24T14:16:46.656Z,11.98
2022-11-24T14:19:51.414Z,10.52
2022-11-24T14:22:54.378Z,42.47
2022-11-24T14:25:57.026Z,39.40
2022-11-24T14:29:07.208Z,17.70
2022-11-24T14:32:16.433Z,16.70
2022-11-24T14:35:30.632Z,19.37
2022-11-24T14:38:34.062Z,9.90
2022-11-24T14:41:37.821Z,12.00
2022-11-24T14:44:40.436Z,17.23
2022-11-24T14:47:46.326Z,29.77
2022-11-24T14:50:49.126Z,22.35
2022-11-24T14:53:57.881Z,15.70
2022-11-24T14:57:04.337Z,12.10
2022-11-24T15:00:19.989Z,8.40
2022-11-24T15:03:22.670Z,9.10
2022-11-24T15:06:25.609Z,17.30
2022-11-24T15:09:39.700Z,10.40
2022-11-24T15:12:50.402Z,9.87
2022-11-24T15:16:03.378Z,7.03
2022-11-24T15:19:14.809Z,7.68
2022-11-24T15:22:37.327Z,10.80
2022-11-24T15:25:40.291Z,6.45
2022-11-24T15:28:42.871Z,9.47
2022-11-24T15:31:50.952Z,15.97
2022-11-24T15:34:55.310Z,11.40
2022-11-24T15:37:58.772Z,11.07
2022-11-24T15:41:01.793Z,12.35
2022-11-24T15:44:04.875Z,15.03
2022-11-24T15:47:08.752Z,6.63
2022-11-24T15:50:12.270Z,7.78
2022-11-24T15:53:35.425Z,12.68
2022-11-24T15:56:41.872Z,14.07
2022-11-24T15:59:44.471Z,15.90
2022-11-24T16:02:47.813Z,11.67
2022-11-24T16:05:53.338Z,17.75
2022-11-24T16:08:56.655Z,14.60
2022-11-24T16:11:59.885Z,14.60
2022-11-24T16:15:02.585Z,13.27
2022-11-24T16:18:06.573Z,11.43
2022-11-24T16:21:10.497Z,12.25
2022-11-24T16:24:13.390Z,19.12
2022-11-24T16:27:16.492Z,25.70
2022-11-24T16:30:19.549Z,34.37
2022-11-24T16:33:22.306Z,25.90
2022-11-24T16:36:25.300Z,40.50
2022-11-24T16:39:28.073Z,56.37
2022-11-24T16:42:31.432Z,55.50
2022-11-24T16:45:34.249Z,38.97
2022-11-24T16:48:37.462Z,14.00
2022-11-24T16:51:40.095Z,10.23
2022-11-24T16:54:43.373Z,14.73
2022-11-24T16:57:46.251Z,14.93
2022-11-24T17:00:49.328Z,18.20
2022-11-24T17:03:52.425Z,35.73
2022-11-24T17:06:58.404Z,22.90
2022-11-24T17:10:01.162Z,16.37
2022-11-24T17:13:04.014Z,11.18
2022-11-24T17:16:09.053Z,18.47
2022-11-24T17:19:12.896Z,14.07
2022-11-24T17:22:15.402Z,12.45
2022-11-24T17:25:18.145Z,18.58
2022-11-24T17:28:20.888Z,20.23
2022-11-24T17:31:25.702Z,47.87
2022-11-24T17:34:28.253Z,107.40
2022-11-24T17:37:32.229Z,120.78
2022-11-24T17:40:35.405Z,86.57
2022-11-24T17:43:38.494Z,80.87
2022-11-24T17:46:41.246Z,62.80
2022-11-24T17:49:44.244Z,56.60
2022-11-24T17:52:46.849Z,45.83
2022-11-24T17:55:49.676Z,60.20
2022-11-24T17:58:54.408Z,34.05
2022-11-24T18:01:57.522Z,39.70
2022-11-24T18:05:00.527Z,42.63
2022-11-24T18:08:04.156Z,42.08
2022-11-24T18:11:08.915Z,35.17
2022-11-24T18:14:11.729Z,31.20
2022-11-24T18:17:14.739Z,28.90
2022-11-24T18:20:18.646Z,27.30
2022-11-24T18:23:21.700Z,31.35
2022-11-24T18:26:24.282Z,32.22
2022-11-24T18:29:28.264Z,26.85
2022-11-24T18:32:34.196Z,24.70
2022-11-24T18:35:37.266Z,31.27
2022-11-24T18:38:40.080Z,33.38
2022-11-24T18:41:43.127Z,25.02
2022-11-24T18:44:49.723Z,29.75
2022-11-24T18:47:55.518Z,29.77
2022-11-24T18:50:58.165Z,23.07
2022-11-24T18:54:03.173Z,25.00
2022-11-24T18:57:05.831Z,17.15
2022-11-24T19:00:10.523Z,17.65
2022-11-24T19:03:13.705Z,14.57
2022-11-24T19:06:20.324Z,18.10
2022-11-24T19:09:25.414Z,16.42
2022-11-24T19:12:28.379Z,20.90
2022-11-24T19:15:35.189Z,56.47
2022-11-24T19:18:38.488Z,46.83
2022-11-24T19:21:41.481Z,43.97
2022-11-24T19:24:46.689Z,46.03
2022-11-24T19:27:49.457Z,31.17
2022-11-24T19:30:52.497Z,33.58
2022-11-24T19:33:57.971Z,36.53
2022-11-24T19:37:01.020Z,36.73
2022-11-24T19:40:04.960Z,35.88
2022-11-24T19:43:08.076Z,29.85
2022-11-24T19:46:12.458Z,29.27
2022-11-24T19:49:15.586Z,16.93
2022-11-24T19:52:18.635Z,12.00
2022-11-24T19:55:21.695Z,21.05
2022-11-24T19:58:24.919Z,39.00
2022-11-24T20:01:33.518Z,19.85
2022-11-24T20:04:39.745Z,11.33
2022-11-24T20:07:42.587Z,12.97
2022-11-24T20:10:45.819Z,22.65
2022-11-24T20:13:50.108Z,27.35
2022-11-24T20:16:53.168Z,13.62
2022-11-24T20:19:55.954Z,13.13
2022-11-24T20:22:59.044Z,11.13
2022-11-24T20:26:07.422Z,12.35
2022-11-24T20:29:13.157Z,13.75
2022-11-24T20:32:19.583Z,9.70
2022-11-24T20:35:22.699Z,6.47
2022-11-24T20:38:25.169Z,8.03
2022-11-24T20:41:31.792Z,6.57
2022-11-24T20:44:34.996Z,9.45
2022-11-24T20:47:38.095Z,13.00
2022-11-24T20:50:40.860Z,10.63
2022-11-24T20:53:43.754Z,17.97
2022-11-24T20:56:47.133Z,16.70
2022-11-24T20:59:52.416Z,11.32
2022-11-24T21:02:57.672Z,9.65
2022-11-24T21:06:01.012Z,30.57
2022-11-24T21:09:05.522Z,22.37
2022-11-24T21:12:08.401Z,22.87
2022-11-24T21:18:34.686Z,18.40
2022-11-24T21:21:38.192Z,17.80
2022-11-24T21:24:40.970Z,14.27
2022-11-24T21:27:44.808Z,14.23
2022-11-24T21:30:47.621Z,18.25
2022-11-24T21:33:52.055Z,19.45
2022-11-24T21:36:54.537Z,20.40
2022-11-24T21:43:00.515Z,13.32
2022-11-24T21:46:06.391Z,17.35
2022-11-24T21:49:08.991Z,16.60
2022-11-24T21:52:11.786Z,18.37
2022-11-24T21:55:14.388Z,16.27
2022-11-24T21:58:17.165Z,17.45
2022-11-24T22:01:21.374Z,16.52
2022-11-24T22:04:24.339Z,15.70
2022-11-24T22:07:31.431Z,16.20
2022-11-24T22:10:36.008Z,15.83
2022-11-24T22:13:38.940Z,14.63
2022-11-24T22:16:41.893Z,14.73
2022-11-24T22:19:44.411Z,9.77
2022-11-24T22:22:47.106Z,10.83
2022-11-24T22:25:49.579Z,9.20
2022-11-24T22:31:57.726Z,11.35
2022-11-24T22:35:00.607Z,6.32
2022-11-24T22:38:03.107Z,9.53
2022-11-24T22:41:15.168Z,5.80
2022-11-24T22:44:17.755Z,6.62
2022-11-24T22:47:20.586Z,6.25
2022-11-24T22:50:23.026Z,8.25
2022-11-24T22:53:25.804Z,6.63
2022-11-24T22:56:29.820Z,6.50
2022-11-24T22:59:33.581Z,9.15
2022-11-24T23:02:36.114Z,8.68
2022-11-24T23:05:38.875Z,2.33
2022-11-24T23:08:41.577Z,3.27
2022-11-24T23:11:44.411Z,2.83
2022-11-24T23:14:46.822Z,2.95
2022-11-24T23:20:52.932Z,3.47
2022-11-24T23:23:56.206Z,2.60
2022-11-24T23:26:58.627Z,2.50
2022-11-24T23:30:04.095Z,3.67
2022-11-24T23:33:06.554Z,2.42
2022-11-24T23:36:13.646Z,2.55
2022-11-24T23:39:16.122Z,1.27
2022-11-24T23:42:18.992Z,1.90
2022-11-24T23:45:21.592Z,2.97
2022-11-24T23:48:24.503Z,4.03
2022-11-24T23:51:28.873Z,5.30
2022-11-24T23:54:31.651Z,5.33
2022-11-24T23:57:34.145Z,6.63
